Time;durP1;ratioP1;P1;durP2;ratioP2;P2;SDS_P1;SDS_P2;PMS_P1;PMS_P2;Temp;Humidity;BMP_temperature;BMP_pressure;BME280_temperature;BME280_humidity;BME280_pressure;Samples;Min_cycle;Max_cycle;Signal;HPM_P1;HPM_P2
2022/11/19 00:01:09;;;;;;;0.40;0.30;;;;;;;8.81;100.00;99325.69;5035046;28;20468;-53
2022/11/19 00:03:37;;;;;;;0.30;0.30;;;;;;;9.04;100.00;99330.09;5042984;28;20455;-53
2022/11/19 00:06:12;;;;;;;0.83;0.57;;;;;;;8.97;100.00;99336.56;5038697;28;20454;-53
2022/11/19 00:08:39;;;;;;;0.97;0.97;;;;;;;9.03;100.00;99328.38;5042732;28;20538;-53
2022/11/19 00:11:09;;;;;;;0.60;0.50;;;;;;;9.02;100.00;99333.75;5032129;28;20452;-54
2022/11/19 00:13:37;;;;;;;0.30;0.20;;;;;;;9.03;100.00;99332.81;5023376;28;20952;-54
2022/11/19 00:16:13;;;;;;;0.50;0.50;;;;;;;9.04;100.00;99330.09;5035861;28;20495;-53
2022/11/19 00:18:40;;;;;;;0.60;0.60;;;;;;;9.05;100.00;99334.50;5043632;28;20466;-53
2022/11/19 00:21:09;;;;;;;1.80;0.47;;;;;;;9.06;100.00;99333.59;5045392;28;20451;-53
2022/11/19 00:23:36;;;;;;;1.17;0.97;;;;;;;9.08;100.00;99326.44;5043892;28;20455;-53
2022/11/19 00:26:09;;;;;;;0.40;0.30;;;;;;;9.15;100.00;99335.00;5046492;28;20451;-53
2022/11/19 00:28:36;;;;;;;0.50;0.47;;;;;;;9.14;100.00;99334.16;5033503;28;21016;-54
2022/11/19 00:31:07;;;;;;;1.40;0.50;;;;;;;9.11;100.00;99333.41;5042603;28;20806;-54
2022/11/19 00:33:35;;;;;;;0.40;0.30;;;;;;;9.16;100.00;99326.13;5037229;28;20456;-54
2022/11/19 00:36:03;;;;;;;1.43;0.90;;;;;;;9.19;100.00;99332.19;5046228;28;20502;-54
2022/11/19 00:38:30;;;;;;;0.40;0.30;;;;;;;9.21;100.00;99332.13;5043601;28;21005;-53
2022/11/19 00:40:57;;;;;;;8.60;0.80;;;;;;;9.09;100.00;99333.47;5038206;28;20450;-54
2022/11/19 00:46:09;;;;;;;0.40;0.30;;;;;;;9.10;100.00;99335.19;5022791;28;20444;-53
2022/11/19 00:48:37;;;;;;;1.63;1.53;;;;;;;9.03;100.00;99330.16;5045751;28;20459;-53
2022/11/19 00:51:04;;;;;;;0.50;0.40;;;;;;;9.05;100.00;99318.63;5040323;28;20454;-53
2022/11/19 00:53:31;;;;;;;0.50;0.40;;;;;;;9.06;100.00;99328.28;5038629;28;20466;-53
2022/11/19 00:56:09;;;;;;;0.60;0.50;;;;;;;9.14;100.00;99338.59;5045037;28;20498;-53
2022/11/19 00:58:37;;;;;;;0.40;0.40;;;;;;;9.11;100.00;99339.56;5045276;28;20822;-53
2022/11/19 01:01:04;;;;;;;0.60;0.40;;;;;;;9.12;100.00;99341.28;5042529;28;20457;-54
2022/11/19 01:03:30;;;;;;;0.50;0.40;;;;;;;9.12;100.00;99337.78;5034967;28;20546;-53
2022/11/19 01:05:57;;;;;;;0.80;0.80;;;;;;;9.09;100.00;99330.81;5027268;28;20455;-53
2022/11/19 01:08:23;;;;;;;0.47;0.30;;;;;;;9.03;100.00;99335.47;5042849;28;20585;-54
2022/11/19 01:10:50;;;;;;;0.50;0.50;;;;;;;9.02;100.00;99339.91;5042916;28;20454;-54
2022/11/19 01:13:35;;;;;;;0.40;0.30;;;;;;;9.07;100.00;99329.16;5037983;28;20477;-53
2022/11/19 01:16:16;;;;;;;0.60;0.47;;;;;;;9.08;100.00;99349.44;5038900;28;21007;-54
2022/11/19 01:18:45;;;;;;;0.40;0.30;;;;;;;9.14;100.00;99349.19;5030043;28;20446;-54
2022/11/19 01:21:12;;;;;;;0.30;0.20;;;;;;;9.10;100.00;99345.78;5038795;28;20452;-53
2022/11/19 01:23:39;;;;;;;0.40;0.40;;;;;;;9.11;100.00;99344.88;5041818;28;20456;-53
2022/11/19 01:26:07;;;;;;;0.47;0.43;;;;;;;9.12;100.00;99351.03;5027692;28;20869;-54
2022/11/19 01:28:33;;;;;;;0.53;0.50;;;;;;;9.09;100.00;99344.06;5042231;28;20455;-54
2022/11/19 01:31:06;;;;;;;0.50;0.33;;;;;;;9.11;100.00;99344.00;5038015;28;21019;-53
2022/11/19 01:33:35;;;;;;;0.70;0.40;;;;;;;9.13;100.00;99350.13;5040968;28;20933;-54
2022/11/19 01:36:05;;;;;;;0.63;0.63;;;;;;;9.11;100.00;99355.47;5045436;28;20492;-54
2022/11/19 01:38:31;;;;;;;0.40;0.37;;;;;;;9.09;100.00;99346.72;5043150;28;20824;-54
2022/11/19 01:40:59;;;;;;;2.10;0.80;;;;;;;9.10;100.00;99337.84;5031302;28;20950;-54
2022/11/19 01:43:47;;;;;;;2.50;0.47;;;;;;;9.11;100.00;99350.19;5027197;28;20830;-54
2022/11/19 01:46:16;;;;;;;0.60;0.57;;;;;;;9.08;100.00;99346.78;5027523;28;20509;-54
2022/11/19 01:48:57;;;;;;;1.27;1.17;;;;;;;9.03;100.00;99338.97;5037938;28;20448;-54
2022/11/19 01:51:29;;;;;;;0.33;0.30;;;;;;;9.09;100.00;99344.06;5041732;28;20495;-54
2022/11/19 01:54:00;;;;;;;1.90;0.90;;;;;;;9.15;100.00;99346.47;5042976;28;20459;-54
2022/11/19 01:56:28;;;;;;;1.10;1.00;;;;;;;9.13;100.00;99339.50;5040271;28;20495;-54
2022/11/19 01:59:01;;;;;;;0.30;0.23;;;;;;;9.22;100.00;99343.59;5044484;28;20502;-53
2022/11/19 02:01:29;;;;;;;0.60;0.57;;;;;;;9.24;100.00;99341.75;5043265;28;20524;-54
2022/11/19 02:03:59;;;;;;;2.73;0.60;;;;;;;9.24;100.00;99336.47;5038182;28;20463;-54
2022/11/19 02:06:30;;;;;;;0.80;0.77;;;;;;;9.19;100.00;99349.91;5033191;28;20464;-54
2022/11/19 02:08:56;;;;;;;1.20;1.20;;;;;;;9.15;100.00;99341.16;5039425;28;20451;-54
2022/11/19 02:11:52;;;;;;;0.67;0.67;;;;;;;9.17;100.00;99355.22;5035880;28;20476;-53
2022/11/19 02:14:50;;;;;;;0.87;0.67;;;;;;;9.11;100.00;99360.78;5035966;28;20524;-53
2022/11/19 02:17:20;;;;;;;1.23;0.60;;;;;;;9.14;100.00;99354.50;5033149;28;21002;-54
2022/11/19 02:20:21;;;;;;;0.63;0.37;;;;;;;9.09;100.00;99359.97;5037718;28;20458;-54
2022/11/19 02:23:24;;;;;;;0.50;0.40;;;;;;;9.23;100.00;99353.28;5031493;28;21026;-53
2022/11/19 02:26:09;;;;;;;0.70;0.70;;;;;;;9.09;100.00;99359.97;5038084;28;20450;-54
2022/11/19 02:28:55;;;;;;;0.70;0.70;;;;;;;8.98;100.00;99364.81;5032611;28;21022;-54
2022/11/19 02:31:38;;;;;;;0.43;0.30;;;;;;;9.14;100.00;99355.34;5037775;28;20489;-53
2022/11/19 02:34:15;;;;;;;2.37;0.73;;;;;;;9.22;100.00;99362.16;5036704;28;20525;-53
2022/11/19 02:37:01;;;;;;;0.47;0.47;;;;;;;9.22;100.00;99359.50;5040095;28;20491;-53
2022/11/19 02:39:38;;;;;;;0.50;0.50;;;;;;;9.18;100.00;99353.44;5037439;28;21112;-54
2022/11/19 02:42:16;;;;;;;0.40;0.40;;;;;;;9.08;100.00;99360.03;5036698;28;20525;-54
2022/11/19 02:44:58;;;;;;;0.70;0.70;;;;;;;9.23;100.00;99356.81;5039206;28;20993;-53
2022/11/19 02:47:39;;;;;;;0.70;0.40;;;;;;;9.17;100.00;99354.38;5019871;28;20442;-54
2022/11/19 02:50:33;;;;;;;0.53;0.53;;;;;;;9.20;100.00;99354.28;5037631;28;20452;-53
2022/11/19 02:53:02;;;;;;;0.60;0.60;;;;;;;9.24;100.00;99355.88;5028966;28;20467;-54
2022/11/19 02:55:28;;;;;;;0.60;0.60;;;;;;;9.23;100.00;99356.81;5043703;28;20885;-54
2022/11/19 02:58:02;;;;;;;1.33;0.83;;;;;;;9.03;100.00;99354.03;5040598;28;20450;-54
2022/11/19 03:06:14;;;;;;;1.83;0.43;;;;;;;9.09;100.00;99367.06;5035702;28;20924;-54
2022/11/19 03:08:41;;;;;;;0.40;0.27;;;;;;;9.02;100.00;99371.72;5035854;28;20447;-54
2022/11/19 03:11:18;;;;;;;0.63;0.50;;;;;;;9.05;100.00;99368.97;5026936;28;20949;-54
2022/11/19 03:16:55;;;;;;;0.40;0.40;;;;;;;9.49;100.00;99377.03;5036713;28;20494;-54
2022/11/19 03:19:39;;;;;;;4.60;1.07;;;;;;;9.74;100.00;99383.09;5037030;28;20447;-54
2022/11/19 03:22:20;;;;;;;2.00;0.70;;;;;;;9.37;100.00;99381.00;5031420;28;21006;-54
2022/11/19 03:25:01;;;;;;;0.70;0.60;;;;;;;9.39;100.00;99387.13;5035607;28;20455;-54
2022/11/19 03:27:37;;;;;;;1.27;0.90;;;;;;;9.42;100.00;99397.59;5036654;28;20483;-54
2022/11/19 03:30:04;;;;;;;8.83;2.70;;;;;;;9.40;100.00;99393.28;5028734;28;20464;-54
2022/11/19 03:32:35;;;;;;;1.00;0.80;;;;;;;8.84;100.00;99397.13;5036333;28;20896;-53
2022/11/19 03:35:09;;;;;;;0.90;0.90;;;;;;;8.32;100.00;99390.09;5038296;28;20470;-53
2022/11/19 03:37:39;;;;;;;0.90;0.90;;;;;;;8.08;100.00;99394.41;5035877;28;20548;-53
2022/11/19 03:40:08;;;;;;;0.77;0.77;;;;;;;7.51;100.00;99394.47;5039476;28;20451;-53
2022/11/19 03:42:38;;;;;;;1.80;1.40;;;;;;;7.20;100.00;99390.13;5042978;28;20475;-52
2022/11/19 03:45:27;;;;;;;1.77;1.57;;;;;;;6.97;100.00;99392.53;5040041;28;20458;-54
2022/11/19 03:47:55;;;;;;;1.00;0.90;;;;;;;7.04;100.00;99399.41;5024190;28;20446;-56
2022/11/19 03:51:02;;;;;;;1.20;0.90;;;;;;;6.84;100.00;99398.19;5036074;28;20473;-56
2022/11/19 03:53:28;;;;;;;4.13;2.23;;;;;;;6.75;100.00;99400.22;5032088;28;20522;-56
2022/11/19 03:56:08;;;;;;;2.30;2.20;;;;;;;6.64;100.00;99395.22;5043044;28;20521;-55
2022/11/19 03:58:40;;;;;;;0.70;0.60;;;;;;;6.39;100.00;99405.56;5031348;28;20459;-56
2022/11/19 04:01:07;;;;;;;1.63;1.27;;;;;;;6.33;100.00;99404.88;5020641;28;20514;-56
2022/11/19 04:03:33;;;;;;;1.10;1.10;;;;;;;6.31;100.00;99404.06;5037024;28;20459;-55
2022/11/19 04:06:00;;;;;;;1.30;0.80;;;;;;;6.38;100.00;99406.47;5037369;28;20448;-55
2022/11/19 04:08:26;;;;;;;3.13;2.93;;;;;;;6.37;100.00;99406.50;5030531;28;20822;-55
2022/11/19 04:10:53;;;;;;;1.17;1.07;;;;;;;6.28;100.00;99415.53;5038586;28;20448;-55
2022/11/19 04:13:19;;;;;;;0.60;0.43;;;;;;;6.23;100.00;99410.38;5041104;28;20475;-56
2022/11/19 04:15:45;;;;;;;4.87;1.80;;;;;;;6.21;100.00;99412.19;5038768;28;20451;-55
2022/11/19 04:18:12;;;;;;;1.93;1.83;;;;;;;6.07;100.00;99421.34;5043171;28;20459;-55
2022/11/19 04:20:38;;;;;;;3.47;2.27;;;;;;;6.05;100.00;99420.53;5038449;28;20454;-56
2022/11/19 04:23:05;;;;;;;1.87;1.77;;;;;;;6.07;100.00;99418.72;5035352;28;20475;-57
2022/11/19 04:25:31;;;;;;;1.23;1.10;;;;;;;5.83;100.00;99421.00;5038021;28;20498;-56
2022/11/19 04:27:58;;;;;;;2.23;1.50;;;;;;;5.65;100.00;99426.69;5042954;28;20451;-57
2022/11/19 04:30:24;;;;;;;2.57;1.47;;;;;;;5.71;100.00;99428.31;5022865;28;20456;-56
2022/11/19 04:32:51;;;;;;;19.30;2.80;;;;;;;5.68;100.00;99433.66;5039751;28;20483;-57
2022/11/19 04:35:20;;;;;;;5.70;1.10;;;;;;;5.58;100.00;99425.94;5040873;28;20455;-56
2022/11/19 04:37:47;;;;;;;0.97;0.97;;;;;;;5.65;100.00;99438.09;5035768;28;21289;-56
2022/11/19 04:40:14;;;;;;;1.13;0.67;;;;;;;5.87;100.00;99425.28;5037196;28;20451;-56
2022/11/19 04:42:40;;;;;;;0.57;0.57;;;;;;;5.83;100.00;99430.69;5041952;28;20482;-56
2022/11/19 04:45:08;;;;;;;4.00;2.10;;;;;;;5.58;100.00;99441.78;5042063;28;20477;-56
2022/11/19 04:47:34;;;;;;;0.80;0.80;;;;;;;5.60;100.00;99444.38;5035654;28;20458;-56
2022/11/19 04:50:00;;;;;;;1.50;1.13;;;;;;;5.64;100.00;99443.41;5036495;28;20514;-57
2022/11/19 04:52:27;;;;;;;1.47;1.37;;;;;;;5.51;100.00;99437.53;5035646;28;21010;-57
2022/11/19 04:54:53;;;;;;;1.13;1.00;;;;;;;5.49;100.00;99443.75;5036824;28;20462;-56
2022/11/19 04:57:20;;;;;;;0.80;0.80;;;;;;;5.59;100.00;99442.63;5043367;28;20487;-57
2022/11/19 04:59:46;;;;;;;1.23;1.13;;;;;;;5.55;100.00;99441.84;5029512;28;20452;-56
2022/11/19 05:02:12;;;;;;;1.60;1.50;;;;;;;5.47;100.00;99437.63;5027387;28;20475;-57
2022/11/19 05:04:39;;;;;;;3.70;1.17;;;;;;;5.34;100.00;99439.66;5027137;28;20453;-57
2022/11/19 05:07:05;;;;;;;0.63;0.40;;;;;;;5.28;100.00;99440.66;5047018;28;20504;-57
2022/11/19 05:09:31;;;;;;;0.80;0.77;;;;;;;5.52;100.00;99441.91;5040378;28;20543;-56
2022/11/19 05:11:58;;;;;;;1.23;1.23;;;;;;;5.39;100.00;99458.03;5046029;28;20512;-57
2022/11/19 05:14:24;;;;;;;1.40;1.37;;;;;;;5.71;100.00;99465.22;5040530;28;20462;-56
2022/11/19 05:16:55;;;;;;;1.17;0.80;;;;;;;5.43;100.00;99476.38;5027057;28;20555;-56
2022/11/19 05:19:22;;;;;;;1.30;1.10;;;;;;;5.62;100.00;99472.47;5038568;28;20460;-56
2022/11/19 05:21:48;;;;;;;0.50;0.40;;;;;;;5.21;100.00;99480.34;5045106;28;20471;-56
2022/11/19 05:24:15;;;;;;;0.73;0.60;;;;;;;5.30;100.00;99475.75;5038846;28;20468;-56
2022/11/19 05:26:41;;;;;;;0.60;0.50;;;;;;;5.21;100.00;99475.97;5045833;28;20452;-56
2022/11/19 05:29:07;;;;;;;2.43;2.23;;;;;;;5.49;100.00;99470.97;5046720;28;20458;-57
2022/11/19 05:31:34;;;;;;;2.40;0.90;;;;;;;5.25;100.00;99471.47;5039762;28;21334;-57
2022/11/19 05:34:00;;;;;;;1.47;1.37;;;;;;;5.12;100.00;99468.22;5038819;28;20459;-57
2022/11/19 05:36:27;;;;;;;1.43;1.00;;;;;;;4.97;100.00;99472.03;5050837;28;20482;-56
2022/11/19 05:38:53;;;;;;;2.10;0.60;;;;;;;4.98;100.00;99473.75;5039401;28;20474;-57
2022/11/19 05:41:19;;;;;;;1.57;1.07;;;;;;;5.09;100.00;99477.97;5042493;28;20484;-56
2022/11/19 05:43:46;;;;;;;0.40;0.33;;;;;;;4.98;100.00;99486.94;5047199;28;20455;-57
2022/11/19 05:46:12;;;;;;;0.73;0.67;;;;;;;5.21;100.00;99483.00;5037572;28;20454;-57
2022/11/19 05:48:39;;;;;;;1.17;1.10;;;;;;;5.17;100.00;99483.94;5038459;28;20952;-57
2022/11/19 05:51:05;;;;;;;0.90;0.57;;;;;;;5.23;100.00;99492.59;5045544;28;20936;-57
2022/11/19 05:53:31;;;;;;;1.50;0.80;;;;;;;5.16;100.00;99488.31;5046022;28;20450;-56
2022/11/19 05:55:58;;;;;;;0.57;0.57;;;;;;;5.05;100.00;99495.56;5029603;28;20482;-56
2022/11/19 05:58:24;;;;;;;0.73;0.73;;;;;;;4.87;100.00;99494.16;5038231;28;20907;-56
2022/11/19 06:00:54;;;;;;;7.00;0.50;;;;;;;4.85;100.00;99501.22;5041546;28;20570;-57
2022/11/19 06:03:21;;;;;;;1.00;0.87;;;;;;;4.79;100.00;99487.28;5037876;28;20551;-57
2022/11/19 06:05:47;;;;;;;0.30;0.20;;;;;;;4.92;100.00;99496.69;5035809;28;20452;-56
2022/11/19 06:08:14;;;;;;;1.70;1.63;;;;;;;4.90;100.00;99486.19;5024324;28;20459;-56
2022/11/19 06:10:40;;;;;;;0.47;0.47;;;;;;;4.68;100.00;99490.13;5041254;28;20455;-57
2022/11/19 06:13:07;;;;;;;0.40;0.30;;;;;;;4.71;100.00;99497.97;5020455;28;20914;-57
2022/11/19 06:15:33;;;;;;;0.30;0.30;;;;;;;4.71;100.00;99503.22;5046414;28;20455;-57
2022/11/19 06:18:00;;;;;;;0.53;0.50;;;;;;;4.84;100.00;99499.47;5040010;28;20540;-56
2022/11/19 06:20:26;;;;;;;0.70;0.70;;;;;;;4.91;100.00;99509.00;5040320;28;20501;-57
2022/11/19 06:22:52;;;;;;;0.33;0.27;;;;;;;5.08;100.00;99518.38;5029114;28;20482;-57
2022/11/19 06:25:19;;;;;;;0.47;0.30;;;;;;;5.09;100.00;99517.47;5030021;28;20874;-56
2022/11/19 06:27:45;;;;;;;1.33;1.23;;;;;;;5.31;100.00;99505.59;5040674;28;20459;-57
2022/11/19 06:30:13;;;;;;;0.93;0.93;;;;;;;5.04;100.00;99512.25;5032233;28;20567;-56
2022/11/19 06:32:39;;;;;;;0.53;0.47;;;;;;;4.87;100.00;99509.94;5040820;28;20517;-56
2022/11/19 06:35:06;;;;;;;2.00;0.77;;;;;;;4.87;100.00;99525.75;5034475;28;20457;-57
2022/11/19 06:37:33;;;;;;;1.80;0.90;;;;;;;4.96;100.00;99530.00;5040626;28;20501;-57
2022/11/19 06:39:59;;;;;;;1.27;0.60;;;;;;;4.76;100.00;99528.56;5030466;28;20454;-57
2022/11/19 06:42:35;;;;;;;0.47;0.30;;;;;;;4.90;100.00;99530.09;5033318;28;20475;-57
2022/11/19 06:45:03;;;;;;;1.00;0.77;;;;;;;4.58;100.00;99538.53;5041598;28;20450;-57
2022/11/19 06:47:31;;;;;;;0.70;0.70;;;;;;;4.73;100.00;99523.34;5037220;28;20454;-56
2022/11/19 06:49:58;;;;;;;0.30;0.20;;;;;;;4.86;100.00;99533.69;5039900;28;20455;-57
2022/11/19 06:52:24;;;;;;;0.80;0.80;;;;;;;4.61;100.00;99533.22;5046808;28;20475;-57
2022/11/19 06:54:51;;;;;;;2.97;0.90;;;;;;;4.43;100.00;99542.28;5038824;28;20954;-56
2022/11/19 06:57:17;;;;;;;1.27;0.83;;;;;;;4.33;100.00;99540.69;5043711;28;20503;-56
2022/11/19 06:59:44;;;;;;;1.10;1.03;;;;;;;4.33;100.00;99549.44;5030794;28;20789;-57
2022/11/19 07:02:11;;;;;;;1.37;1.10;;;;;;;4.54;100.00;99565.81;5036259;28;20479;-56
2022/11/19 07:04:37;;;;;;;1.60;1.50;;;;;;;4.45;100.00;99562.41;5037852;28;20464;-57
2022/11/19 07:07:04;;;;;;;0.83;0.83;;;;;;;4.62;100.00;99569.19;5039725;28;20948;-56
2022/11/19 07:09:31;;;;;;;0.93;0.93;;;;;;;4.68;100.00;99567.31;5036615;28;20488;-56
2022/11/19 07:11:57;;;;;;;0.60;0.60;;;;;;;4.45;100.00;99557.16;5025805;28;20491;-57
2022/11/19 07:14:24;;;;;;;0.60;0.50;;;;;;;4.32;100.00;99565.25;5030243;28;21023;-56
2022/11/19 07:16:50;;;;;;;3.80;1.67;;;;;;;4.52;100.00;99568.44;5041297;28;20496;-56
2022/11/19 07:19:16;;;;;;;0.67;0.67;;;;;;;4.58;100.00;99567.50;5015516;28;20461;-57
2022/11/19 07:21:44;;;;;;;0.30;0.20;;;;;;;4.60;100.00;99568.34;5038302;28;20479;-56
2022/11/19 07:24:10;;;;;;;0.40;0.37;;;;;;;4.46;100.00;99573.81;5030735;28;20452;-56
2022/11/19 07:26:37;;;;;;;2.40;1.20;;;;;;;4.44;100.00;99576.47;5025351;28;20464;-57
2022/11/19 07:29:05;;;;;;;0.77;0.57;;;;;;;4.38;100.00;99583.56;5019288;28;20452;-57
2022/11/19 07:31:33;;;;;;;0.77;0.50;;;;;;;4.28;100.00;99582.88;5039206;28;20906;-56
2022/11/19 07:33:59;;;;;;;1.43;1.33;;;;;;;4.02;100.00;99583.22;5040340;28;20460;-57
2022/11/19 07:36:26;;;;;;;1.70;1.00;;;;;;;4.30;100.00;99588.09;5026129;28;20455;-56
2022/11/19 07:38:52;;;;;;;0.90;0.87;;;;;;;4.49;100.00;99596.56;5029224;28;20492;-56
2022/11/19 07:44:04;;;;;;;0.57;0.57;;;;;;;4.15;100.00;99602.34;5022650;28;20454;-57
2022/11/19 07:46:31;;;;;;;1.50;0.93;;;;;;;4.45;100.00;99614.19;5035288;28;20465;-57
2022/11/19 07:48:57;;;;;;;1.07;0.97;;;;;;;4.43;100.00;99606.31;5033408;28;20485;-57
2022/11/19 07:51:24;;;;;;;0.50;0.50;;;;;;;4.22;100.00;99617.13;5029881;28;20468;-56
2022/11/19 07:53:51;;;;;;;0.50;0.50;;;;;;;4.52;100.00;99628.97;5040446;28;20451;-56
2022/11/19 07:56:18;;;;;;;1.87;1.77;;;;;;;4.54;100.00;99621.06;5040540;28;20477;-56
2022/11/19 07:58:45;;;;;;;1.07;1.07;;;;;;;4.45;100.00;99630.84;5031494;28;20582;-56
2022/11/19 08:01:18;;;;;;;1.00;1.00;;;;;;;4.21;100.00;99628.53;5034838;28;20941;-57
2022/11/19 08:03:45;;;;;;;2.50;1.53;;;;;;;4.57;100.00;99629.78;5014100;28;20468;-57
2022/11/19 08:06:21;;;;;;;1.10;1.07;;;;;;;4.45;100.00;99630.84;5027976;28;20467;-56
2022/11/19 08:08:47;;;;;;;0.73;0.73;;;;;;;4.36;100.00;99632.72;5041865;28;20455;-57
2022/11/19 08:11:15;;;;;;;0.30;0.20;;;;;;;4.60;100.00;99629.72;5017009;28;20456;-56
2022/11/19 08:13:42;;;;;;;0.93;0.93;;;;;;;4.33;100.00;99635.41;5026556;28;20524;-57
2022/11/19 08:18:11;;;;;;;0.97;0.40;;;;;;;4.41;100.00;99644.06;5039214;28;20454;-57
2022/11/19 08:19:09;;;;;;;0.93;0.93;;;;;;;4.37;100.00;99644.97;5024313;28;20496;-56
2022/11/19 08:21:39;;;;;;;0.40;0.37;;;;;;;4.31;100.00;99639.81;5033240;28;20482;-57
2022/11/19 08:24:06;;;;;;;0.50;0.50;;;;;;;4.22;100.00;99645.19;5036263;28;20451;-57
2022/11/19 08:26:33;;;;;;;1.33;1.20;;;;;;;4.03;100.00;99648.06;5041899;28;20907;-57
2022/11/19 08:28:59;;;;;;;1.90;1.80;;;;;;;4.01;100.00;99647.22;5029174;28;20455;-57
2022/11/19 08:31:26;;;;;;;1.23;1.13;;;;;;;4.26;100.00;99655.66;5042556;28;20499;-57
2022/11/19 08:33:52;;;;;;;0.90;0.90;;;;;;;4.01;100.00;99657.75;5032383;28;20514;-57
2022/11/19 08:36:18;;;;;;;0.83;0.60;;;;;;;4.00;100.00;99656.00;5045008;28;20955;-57
2022/11/19 08:38:45;;;;;;;2.27;0.47;;;;;;;4.05;100.00;99650.66;5025213;28;20495;-57
2022/11/19 08:43:59;;;;;;;3.40;0.70;;;;;;;3.89;100.00;99651.75;5023481;28;20484;-57
2022/11/19 08:46:26;;;;;;;0.80;0.50;;;;;;;3.90;100.00;99649.09;5022933;28;21034;-57
2022/11/19 08:48:53;;;;;;;0.30;0.30;;;;;;;3.88;100.00;99650.03;5046634;28;20829;-57
2022/11/19 08:51:19;;;;;;;1.43;1.37;;;;;;;3.86;100.00;99656.16;5036029;28;20476;-57
2022/11/19 08:53:45;;;;;;;0.40;0.30;;;;;;;4.04;100.00;99662.09;5039303;28;20454;-57
2022/11/19 08:56:12;;;;;;;1.90;1.20;;;;;;;4.03;100.00;99671.72;5029516;28;20452;-56
2022/11/19 08:58:43;;;;;;;0.93;0.83;;;;;;;3.99;100.00;99671.78;5022888;28;20483;-57
2022/11/19 09:01:12;;;;;;;0.50;0.50;;;;;;;3.88;100.00;99673.69;5034246;28;20798;-57
2022/11/19 09:03:38;;;;;;;0.30;0.20;;;;;;;3.65;100.00;99681.81;5038539;28;20454;-57
2022/11/19 09:06:05;;;;;;;4.90;1.27;;;;;;;3.72;100.00;99675.63;5038484;28;20459;-57
2022/11/19 09:08:32;;;;;;;2.50;0.30;;;;;;;3.81;100.00;99686.88;5033987;28;20442;-57
2022/11/19 09:10:59;;;;;;;0.30;0.30;;;;;;;3.90;100.00;99693.78;5044221;28;20444;-57
2022/11/19 09:13:26;;;;;;;3.10;1.67;;;;;;;3.92;100.00;99685.88;5030156;28;20513;-57
2022/11/19 09:15:52;;;;;;;0.67;0.67;;;;;;;4.06;100.00;99692.72;5043444;28;20963;-58
2022/11/19 09:18:18;;;;;;;1.40;1.30;;;;;;;4.28;100.00;99695.09;5038084;28;20521;-57
2022/11/19 09:20:45;;;;;;;0.40;0.40;;;;;;;3.88;100.00;99685.06;5040082;28;21079;-57
2022/11/19 09:23:11;;;;;;;0.87;0.87;;;;;;;3.95;100.00;99699.00;5019062;28;20471;-57
2022/11/19 09:25:38;;;;;;;0.30;0.30;;;;;;;3.98;100.00;99702.47;5040069;28;20555;-57
2022/11/19 09:28:04;;;;;;;0.90;0.90;;;;;;;4.24;100.00;99707.41;5045346;28;20458;-57
2022/11/19 09:30:31;;;;;;;1.27;1.20;;;;;;;4.07;100.00;99706.75;5043741;28;20979;-57
2022/11/19 09:32:59;;;;;;;0.57;0.57;;;;;;;4.07;100.00;99712.88;5037894;28;20486;-57
2022/11/19 09:35:25;;;;;;;1.17;1.07;;;;;;;4.14;100.00;99716.31;5027804;28;20539;-57
2022/11/19 09:37:51;;;;;;;0.87;0.87;;;;;;;4.25;100.00;99721.41;5043591;28;20545;-57
2022/11/19 09:40:22;;;;;;;0.60;0.37;;;;;;;3.97;100.00;99721.75;5044159;28;20454;-57
2022/11/19 09:43:10;;;;;;;2.40;2.30;;;;;;;4.01;100.00;99719.97;5037612;28;20475;-57
2022/11/19 09:46:19;;;;;;;2.73;1.03;;;;;;;3.97;100.00;99727.00;5037985;28;20454;-57
2022/11/19 09:48:49;;;;;;;0.40;0.37;;;;;;;3.83;100.00;99739.41;5037518;28;20452;-57
2022/11/19 09:51:20;;;;;;;0.50;0.50;;;;;;;3.88;100.00;99736.75;5042305;28;20458;-57
2022/11/19 09:53:57;;;;;;;0.70;0.70;;;;;;;3.88;100.00;99736.75;5044074;28;20988;-57
2022/11/19 09:56:45;;;;;;;0.70;0.70;;;;;;;4.12;100.00;99744.41;5041627;28;20799;-57
2022/11/19 09:59:39;;;;;;;0.60;0.60;;;;;;;3.94;100.00;99742.81;5042892;28;20492;-57
2022/11/19 10:02:16;;;;;;;0.20;0.10;;;;;;;3.71;100.00;99750.09;5044620;28;20464;-57
2022/11/19 10:04:44;;;;;;;0.40;0.40;;;;;;;3.97;100.00;99737.50;5044289;28;20450;-57
2022/11/19 10:07:40;;;;;;;0.33;0.27;;;;;;;4.20;100.00;99744.28;5026521;28;20869;-57
2022/11/19 10:10:37;;;;;;;0.47;0.40;;;;;;;3.86;100.00;99742.03;5044424;28;20452;-57
2022/11/19 10:13:32;;;;;;;3.60;0.90;;;;;;;3.99;100.00;99742.78;5039267;28;20470;-57
2022/11/19 10:16:07;;;;;;;0.83;0.83;;;;;;;4.10;100.00;99733.00;5043489;28;20501;-57
2022/11/19 10:18:36;;;;;;;0.87;0.40;;;;;;;4.02;100.00;99737.50;5024762;28;20494;-57
2022/11/19 10:21:32;;;;;;;0.73;0.30;;;;;;;3.97;100.00;99732.25;5036872;28;20455;-57
2022/11/19 10:24:01;;;;;;;0.30;0.20;;;;;;;3.84;100.00;99738.56;5039393;28;20486;-57
2022/11/19 10:26:39;;;;;;;0.40;0.30;;;;;;;3.97;100.00;99734.00;5043788;28;20456;-57
2022/11/19 10:29:14;;;;;;;0.73;0.73;;;;;;;4.12;100.00;99734.75;5043959;28;20450;-57
2022/11/19 10:31:49;;;;;;;0.83;0.83;;;;;;;4.35;100.00;99741.47;5030359;28;20859;-57
2022/11/19 10:34:18;;;;;;;0.50;0.50;;;;;;;4.02;100.00;99748.00;5043706;28;20461;-57
2022/11/19 10:36:54;;;;;;;0.60;0.50;;;;;;;4.26;100.00;99750.38;5040552;28;20485;-57
2022/11/19 10:39:34;;;;;;;1.07;0.90;;;;;;;4.01;100.00;99755.03;5036764;28;20490;-57
2022/11/19 10:42:40;;;;;;;0.63;0.50;;;;;;;3.99;100.00;99740.16;5037107;28;20470;-57
2022/11/19 10:45:16;;;;;;;0.70;0.70;;;;;;;4.01;100.00;99730.50;5022356;28;20448;-57
2022/11/19 10:47:52;;;;;;;1.13;1.13;;;;;;;4.08;100.00;99738.28;5043529;28;20448;-56
2022/11/19 10:50:23;;;;;;;4.03;0.83;;;;;;;4.20;100.00;99739.91;5044811;28;20573;-57
2022/11/19 10:53:11;;;;;;;0.30;0.30;;;;;;;4.36;100.00;99736.19;5041295;28;20482;-57
2022/11/19 10:55:42;;;;;;;0.60;0.60;;;;;;;4.19;100.00;99739.91;5043532;28;20452;-56
2022/11/19 10:58:11;;;;;;;0.90;0.33;;;;;;;3.89;100.00;99747.25;5042069;28;20525;-56
2022/11/19 11:00:40;;;;;;;0.87;0.40;;;;;;;4.09;100.00;99740.00;5035670;28;20458;-57
2022/11/19 11:03:41;;;;;;;0.47;0.47;;;;;;;4.23;100.00;99742.47;5036144;28;20830;-57
2022/11/19 11:06:08;;;;;;;0.40;0.40;;;;;;;4.04;100.00;99744.47;5008850;28;20465;-57
2022/11/19 11:08:50;;;;;;;0.53;0.50;;;;;;;4.56;100.00;99746.47;5033769;28;20505;-57
2022/11/19 11:17:18;;;;;;;1.00;0.87;;;;;;;4.34;100.00;99743.22;5027364;28;20455;-57
2022/11/19 11:20:03;;;;;;;3.27;1.40;;;;;;;4.51;100.00;99740.38;5036205;28;20497;-56
2022/11/19 11:22:30;;;;;;;0.87;0.87;;;;;;;4.05;100.00;99737.44;5050143;28;20494;-57
2022/11/19 11:24:58;;;;;;;1.20;0.90;;;;;;;4.39;100.00;99737.94;5036325;28;20447;-57
2022/11/19 11:27:34;;;;;;;0.50;0.50;;;;;;;4.01;100.00;99736.63;5035934;28;20499;-56
2022/11/19 11:30:05;;;;;;;0.60;0.60;;;;;;;4.25;100.00;99734.56;5040774;28;20458;-57
2022/11/19 11:32:32;;;;;;;1.03;0.93;;;;;;;4.02;100.00;99730.47;5031630;28;20498;-56
2022/11/19 11:34:58;;;;;;;1.37;0.83;;;;;;;4.07;100.00;99727.78;5039774;28;20462;-56
2022/11/19 11:37:32;;;;;;;0.40;0.40;;;;;;;4.08;100.00;99735.66;5042609;28;20451;-57
2022/11/19 11:39:59;;;;;;;1.27;1.17;;;;;;;3.99;100.00;99732.28;5039863;28;20508;-56
2022/11/19 11:42:27;;;;;;;4.83;1.13;;;;;;;3.98;100.00;99741.03;5036014;28;20474;-57
2022/11/19 11:44:57;;;;;;;1.17;1.10;;;;;;;4.36;100.00;99741.44;5038285;28;20948;-56
2022/11/19 11:47:36;;;;;;;5.20;0.90;;;;;;;4.18;100.00;99732.91;5042914;28;20487;-57
2022/11/19 11:50:13;;;;;;;1.53;1.43;;;;;;;4.12;100.00;99737.38;5042688;28;21011;-57
2022/11/19 11:52:47;;;;;;;1.67;1.57;;;;;;;4.30;100.00;99728.38;5037595;28;20573;-57
2022/11/19 11:55:22;;;;;;;1.97;1.83;;;;;;;4.27;100.00;99741.59;5035616;28;20444;-57
2022/11/19 11:58:23;;;;;;;1.97;1.70;;;;;;;4.14;100.00;99737.34;5038058;28;20458;-57
2022/11/19 12:00:53;;;;;;;0.93;0.93;;;;;;;4.37;100.00;99731.78;5025847;28;20443;-57
2022/11/19 12:03:21;;;;;;;1.27;0.87;;;;;;;4.53;100.00;99730.72;5035794;28;20472;-57
2022/11/19 12:06:14;;;;;;;1.47;1.17;;;;;;;4.14;100.00;99732.97;5039760;28;20463;-57
2022/11/19 12:09:20;;;;;;;0.60;0.60;;;;;;;4.02;100.00;99732.22;5042029;28;20452;-56
2022/11/19 12:12:15;;;;;;;0.53;0.53;;;;;;;4.24;100.00;99725.81;5016377;28;20463;-56
2022/11/19 12:15:15;;;;;;;1.53;0.70;;;;;;;4.25;100.00;99724.94;5040949;28;20459;-57
2022/11/19 12:18:04;;;;;;;1.33;0.87;;;;;;;4.31;100.00;99721.38;5046208;28;20974;-56